sensor_id;sensor_type;location;lat;lon;timestamp;P1;durP1;ratioP1;P2;durP2;ratioP2
24677;SDS011;12800;53.094;8.778;2023-05-10T00:01:55;2.63;;;2.25;;
24677;SDS011;12800;53.094;8.778;2023-05-10T00:04:21;2.70;;;2.50;;
24677;SDS011;12800;53.094;8.778;2023-05-10T00:06:46;4.47;;;2.40;;
24677;SDS011;12800;53.094;8.778;2023-05-10T00:09:12;4.20;;;2.33;;
24677;SDS011;12800;53.094;8.778;2023-05-10T00:11:38;2.92;;;2.33;;
24677;SDS011;12800;53.094;8.778;2023-05-10T00:14:04;2.33;;;1.80;;
24677;SDS011;12800;53.094;8.778;2023-05-10T00:16:29;3.25;;;1.92;;
24677;SDS011;12800;53.094;8.778;2023-05-10T00:18:55;4.50;;;2.10;;
24677;SDS011;12800;53.094;8.778;2023-05-10T00:21:21;2.88;;;1.95;;
24677;SDS011;12800;53.094;8.778;2023-05-10T00:23:46;4.72;;;2.60;;
24677;SDS011;12800;53.094;8.778;2023-05-10T00:26:12;4.15;;;2.30;;
24677;SDS011;12800;53.094;8.778;2023-05-10T00:28:37;4.85;;;1.98;;
24677;SDS011;12800;53.094;8.778;2023-05-10T00:31:03;4.32;;;2.10;;
24677;SDS011;12800;53.094;8.778;2023-05-10T00:33:29;4.53;;;2.03;;
24677;SDS011;12800;53.094;8.778;2023-05-10T00:35:54;3.00;;;2.20;;
24677;SDS011;12800;53.094;8.778;2023-05-10T00:38:20;4.18;;;2.10;;
24677;SDS011;12800;53.094;8.778;2023-05-10T00:40:46;3.40;;;2.15;;
24677;SDS011;12800;53.094;8.778;2023-05-10T00:43:12;5.07;;;2.10;;
24677;SDS011;12800;53.094;8.778;2023-05-10T00:45:37;2.63;;;2.05;;
24677;SDS011;12800;53.094;8.778;2023-05-10T00:48:05;5.60;;;2.17;;
24677;SDS011;12800;53.094;8.778;2023-05-10T00:50:31;4.85;;;2.33;;
24677;SDS011;12800;53.094;8.778;2023-05-10T00:52:58;4.55;;;2.30;;
24677;SDS011;12800;53.094;8.778;2023-05-10T00:55:24;3.15;;;1.77;;
24677;SDS011;12800;53.094;8.778;2023-05-10T00:57:50;6.13;;;2.30;;
24677;SDS011;12800;53.094;8.778;2023-05-10T01:00:17;3.10;;;2.20;;
24677;SDS011;12800;53.094;8.778;2023-05-10T01:02:44;5.90;;;2.08;;
24677;SDS011;12800;53.094;8.778;2023-05-10T01:05:11;6.80;;;2.08;;
24677;SDS011;12800;53.094;8.778;2023-05-10T01:07:37;2.40;;;2.00;;
24677;SDS011;12800;53.094;8.778;2023-05-10T01:10:03;5.07;;;2.17;;
24677;SDS011;12800;53.094;8.778;2023-05-10T01:12:30;5.75;;;2.20;;
24677;SDS011;12800;53.094;8.778;2023-05-10T01:14:55;5.95;;;1.90;;
24677;SDS011;12800;53.094;8.778;2023-05-10T01:17:22;4.93;;;2.00;;
24677;SDS011;12800;53.094;8.778;2023-05-10T01:19:48;3.83;;;2.03;;
24677;SDS011;12800;53.094;8.778;2023-05-10T01:25:11;5.00;;;2.47;;
24677;SDS011;12800;53.094;8.778;2023-05-10T01:27:55;3.70;;;2.22;;
24677;SDS011;12800;53.094;8.778;2023-05-10T01:35:59;4.55;;;2.08;;
24677;SDS011;12800;53.094;8.778;2023-05-10T01:41:28;8.73;;;2.85;;
24677;SDS011;12800;53.094;8.778;2023-05-10T01:43:58;2.72;;;2.10;;
24677;SDS011;12800;53.094;8.778;2023-05-10T01:46:32;3.55;;;1.90;;
24677;SDS011;12800;53.094;8.778;2023-05-10T01:49:02;4.00;;;2.33;;
24677;SDS011;12800;53.094;8.778;2023-05-10T01:51:35;3.20;;;2.28;;
24677;SDS011;12800;53.094;8.778;2023-05-10T01:54:14;2.85;;;2.30;;
24677;SDS011;12800;53.094;8.778;2023-05-10T01:56:42;3.10;;;2.38;;
24677;SDS011;12800;53.094;8.778;2023-05-10T01:59:12;4.90;;;2.10;;
24677;SDS011;12800;53.094;8.778;2023-05-10T02:01:40;3.67;;;2.28;;
24677;SDS011;12800;53.094;8.778;2023-05-10T02:04:07;5.68;;;2.08;;
24677;SDS011;12800;53.094;8.778;2023-05-10T02:06:34;3.90;;;2.10;;
24677;SDS011;12800;53.094;8.778;2023-05-10T02:09:01;2.63;;;2.15;;
24677;SDS011;12800;53.094;8.778;2023-05-10T02:11:28;5.22;;;2.20;;
24677;SDS011;12800;53.094;8.778;2023-05-10T02:13:55;6.03;;;2.45;;
24677;SDS011;12800;53.094;8.778;2023-05-10T02:16:23;5.28;;;2.60;;
24677;SDS011;12800;53.094;8.778;2023-05-10T02:18:51;4.63;;;2.70;;
24677;SDS011;12800;53.094;8.778;2023-05-10T02:21:18;5.85;;;2.95;;
24677;SDS011;12800;53.094;8.778;2023-05-10T02:23:46;4.88;;;2.05;;
24677;SDS011;12800;53.094;8.778;2023-05-10T02:26:14;3.58;;;2.20;;
24677;SDS011;12800;53.094;8.778;2023-05-10T02:28:41;4.72;;;2.40;;
24677;SDS011;12800;53.094;8.778;2023-05-10T02:31:07;3.17;;;2.67;;
24677;SDS011;12800;53.094;8.778;2023-05-10T02:33:35;4.28;;;2.05;;
24677;SDS011;12800;53.094;8.778;2023-05-10T02:36:03;4.72;;;2.53;;
24677;SDS011;12800;53.094;8.778;2023-05-10T02:38:30;3.90;;;2.72;;
24677;SDS011;12800;53.094;8.778;2023-05-10T02:40:57;4.68;;;2.15;;
24677;SDS011;12800;53.094;8.778;2023-05-10T02:43:24;3.38;;;2.15;;
24677;SDS011;12800;53.094;8.778;2023-05-10T02:45:51;4.07;;;2.40;;
24677;SDS011;12800;53.094;8.778;2023-05-10T02:48:16;4.03;;;2.35;;
24677;SDS011;12800;53.094;8.778;2023-05-10T02:50:45;5.22;;;2.40;;
24677;SDS011;12800;53.094;8.778;2023-05-10T02:53:18;2.83;;;2.28;;
24677;SDS011;12800;53.094;8.778;2023-05-10T02:55:49;3.40;;;2.95;;
24677;SDS011;12800;53.094;8.778;2023-05-10T02:58:17;4.10;;;2.53;;
24677;SDS011;12800;53.094;8.778;2023-05-10T03:00:44;4.15;;;2.65;;
24677;SDS011;12800;53.094;8.778;2023-05-10T03:03:11;5.55;;;3.13;;
24677;SDS011;12800;53.094;8.778;2023-05-10T03:05:36;5.75;;;2.47;;
24677;SDS011;12800;53.094;8.778;2023-05-10T03:08:02;2.55;;;2.35;;
24677;SDS011;12800;53.094;8.778;2023-05-10T03:10:29;5.97;;;3.10;;
24677;SDS011;12800;53.094;8.778;2023-05-10T03:13:39;4.90;;;2.90;;
24677;SDS011;12800;53.094;8.778;2023-05-10T03:19:07;3.63;;;2.83;;
24677;SDS011;12800;53.094;8.778;2023-05-10T03:21:36;6.18;;;2.47;;
24677;SDS011;12800;53.094;8.778;2023-05-10T03:24:07;5.93;;;2.90;;
24677;SDS011;12800;53.094;8.778;2023-05-10T03:26:36;3.30;;;2.58;;
24677;SDS011;12800;53.094;8.778;2023-05-10T03:29:04;4.55;;;2.78;;
24677;SDS011;12800;53.094;8.778;2023-05-10T03:31:31;4.15;;;2.70;;
24677;SDS011;12800;53.094;8.778;2023-05-10T03:33:57;3.60;;;3.08;;
24677;SDS011;12800;53.094;8.778;2023-05-10T03:36:23;2.97;;;2.67;;
24677;SDS011;12800;53.094;8.778;2023-05-10T03:38:48;7.55;;;3.10;;
24677;SDS011;12800;53.094;8.778;2023-05-10T03:41:14;5.30;;;3.00;;
24677;SDS011;12800;53.094;8.778;2023-05-10T03:43:40;5.78;;;3.10;;
24677;SDS011;12800;53.094;8.778;2023-05-10T03:46:06;5.07;;;3.05;;
24677;SDS011;12800;53.094;8.778;2023-05-10T03:48:31;4.00;;;3.13;;
24677;SDS011;12800;53.094;8.778;2023-05-10T03:50:57;4.75;;;3.47;;
24677;SDS011;12800;53.094;8.778;2023-05-10T03:53:23;4.15;;;2.97;;
24677;SDS011;12800;53.094;8.778;2023-05-10T03:55:49;3.30;;;2.92;;
24677;SDS011;12800;53.094;8.778;2023-05-10T03:58:14;3.30;;;3.00;;
24677;SDS011;12800;53.094;8.778;2023-05-10T04:00:40;7.05;;;3.38;;
24677;SDS011;12800;53.094;8.778;2023-05-10T04:03:10;5.78;;;3.22;;
24677;SDS011;12800;53.094;8.778;2023-05-10T04:05:36;5.22;;;2.92;;
24677;SDS011;12800;53.094;8.778;2023-05-10T04:08:02;5.72;;;3.70;;
24677;SDS011;12800;53.094;8.778;2023-05-10T04:10:28;4.35;;;3.00;;
24677;SDS011;12800;53.094;8.778;2023-05-10T04:12:54;7.38;;;3.60;;
24677;SDS011;12800;53.094;8.778;2023-05-10T04:15:20;4.40;;;3.33;;
24677;SDS011;12800;53.094;8.778;2023-05-10T04:17:46;6.55;;;3.47;;
24677;SDS011;12800;53.094;8.778;2023-05-10T04:20:12;5.50;;;3.50;;
24677;SDS011;12800;53.094;8.778;2023-05-10T04:22:37;6.45;;;3.50;;
24677;SDS011;12800;53.094;8.778;2023-05-10T04:25:03;8.07;;;3.83;;
24677;SDS011;12800;53.094;8.778;2023-05-10T04:27:29;5.97;;;3.38;;
24677;SDS011;12800;53.094;8.778;2023-05-10T04:29:56;5.15;;;3.20;;
24677;SDS011;12800;53.094;8.778;2023-05-10T04:32:21;5.57;;;3.05;;
24677;SDS011;12800;53.094;8.778;2023-05-10T04:34:47;4.50;;;4.05;;
24677;SDS011;12800;53.094;8.778;2023-05-10T04:37:13;5.88;;;3.95;;
24677;SDS011;12800;53.094;8.778;2023-05-10T04:39:38;8.60;;;3.80;;
24677;SDS011;12800;53.094;8.778;2023-05-10T04:42:04;6.05;;;3.70;;
24677;SDS011;12800;53.094;8.778;2023-05-10T04:44:30;8.95;;;4.53;;
24677;SDS011;12800;53.094;8.778;2023-05-10T04:46:59;9.20;;;4.05;;
24677;SDS011;12800;53.094;8.778;2023-05-10T04:49:25;5.47;;;4.25;;
24677;SDS011;12800;53.094;8.778;2023-05-10T04:51:50;7.82;;;5.53;;
24677;SDS011;12800;53.094;8.778;2023-05-10T04:54:16;6.15;;;4.97;;
24677;SDS011;12800;53.094;8.778;2023-05-10T04:56:41;5.25;;;4.38;;
24677;SDS011;12800;53.094;8.778;2023-05-10T04:59:07;4.75;;;4.25;;
24677;SDS011;12800;53.094;8.778;2023-05-10T05:01:32;6.10;;;4.78;;
24677;SDS011;12800;53.094;8.778;2023-05-10T05:03:58;6.18;;;4.95;;
24677;SDS011;12800;53.094;8.778;2023-05-10T05:06:24;5.75;;;5.05;;
24677;SDS011;12800;53.094;8.778;2023-05-10T05:08:50;6.25;;;4.70;;
24677;SDS011;12800;53.094;8.778;2023-05-10T05:11:16;7.25;;;4.50;;
24677;SDS011;12800;53.094;8.778;2023-05-10T05:13:42;6.40;;;5.00;;
24677;SDS011;12800;53.094;8.778;2023-05-10T05:16:08;6.00;;;5.03;;
24677;SDS011;12800;53.094;8.778;2023-05-10T05:18:34;7.28;;;4.60;;
24677;SDS011;12800;53.094;8.778;2023-05-10T05:20:59;7.90;;;5.30;;
24677;SDS011;12800;53.094;8.778;2023-05-10T05:23:26;7.00;;;4.72;;
24677;SDS011;12800;53.094;8.778;2023-05-10T05:25:52;6.70;;;4.28;;
24677;SDS011;12800;53.094;8.778;2023-05-10T05:28:18;6.90;;;4.55;;
24677;SDS011;12800;53.094;8.778;2023-05-10T05:30:44;7.80;;;5.00;;
24677;SDS011;12800;53.094;8.778;2023-05-10T05:33:10;5.85;;;4.55;;
24677;SDS011;12800;53.094;8.778;2023-05-10T05:35:36;5.80;;;5.00;;
24677;SDS011;12800;53.094;8.778;2023-05-10T05:38:02;6.32;;;4.40;;
24677;SDS011;12800;53.094;8.778;2023-05-10T05:40:27;7.38;;;4.95;;
24677;SDS011;12800;53.094;8.778;2023-05-10T05:42:53;8.25;;;4.53;;
24677;SDS011;12800;53.094;8.778;2023-05-10T05:45:18;7.93;;;4.40;;
24677;SDS011;12800;53.094;8.778;2023-05-10T05:47:44;5.22;;;4.60;;
24677;SDS011;12800;53.094;8.778;2023-05-10T05:50:10;12.02;;;5.68;;
24677;SDS011;12800;53.094;8.778;2023-05-10T05:52:35;8.20;;;4.82;;
24677;SDS011;12800;53.094;8.778;2023-05-10T05:55:01;8.90;;;6.10;;
24677;SDS011;12800;53.094;8.778;2023-05-10T05:57:27;9.52;;;6.25;;
24677;SDS011;12800;53.094;8.778;2023-05-10T05:59:53;8.07;;;5.88;;
24677;SDS011;12800;53.094;8.778;2023-05-10T06:02:18;7.85;;;5.65;;
24677;SDS011;12800;53.094;8.778;2023-05-10T06:04:44;8.90;;;5.55;;
24677;SDS011;12800;53.094;8.778;2023-05-10T06:07:09;12.40;;;5.93;;
24677;SDS011;12800;53.094;8.778;2023-05-10T06:09:35;7.90;;;6.40;;
24677;SDS011;12800;53.094;8.778;2023-05-10T06:12:01;7.03;;;5.30;;
24677;SDS011;12800;53.094;8.778;2023-05-10T06:14:26;6.88;;;5.63;;
24677;SDS011;12800;53.094;8.778;2023-05-10T06:16:52;8.25;;;5.20;;
24677;SDS011;12800;53.094;8.778;2023-05-10T06:19:18;7.80;;;5.53;;
24677;SDS011;12800;53.094;8.778;2023-05-10T06:21:43;5.97;;;5.32;;
24677;SDS011;12800;53.094;8.778;2023-05-10T06:24:09;5.53;;;5.00;;
24677;SDS011;12800;53.094;8.778;2023-05-10T06:26:35;10.07;;;6.15;;
24677;SDS011;12800;53.094;8.778;2023-05-10T06:29:01;9.57;;;5.85;;
24677;SDS011;12800;53.094;8.778;2023-05-10T06:31:26;10.50;;;5.55;;
24677;SDS011;12800;53.094;8.778;2023-05-10T06:33:52;6.55;;;5.55;;
24677;SDS011;12800;53.094;8.778;2023-05-10T06:36:18;10.73;;;5.97;;
24677;SDS011;12800;53.094;8.778;2023-05-10T06:38:44;9.88;;;5.80;;
24677;SDS011;12800;53.094;8.778;2023-05-10T06:41:09;9.63;;;6.18;;
24677;SDS011;12800;53.094;8.778;2023-05-10T06:43:35;10.82;;;6.10;;
24677;SDS011;12800;53.094;8.778;2023-05-10T06:46:02;9.55;;;6.32;;
24677;SDS011;12800;53.094;8.778;2023-05-10T06:48:27;16.70;;;12.70;;
24677;SDS011;12800;53.094;8.778;2023-05-10T06:50:53;12.20;;;7.95;;
24677;SDS011;12800;53.094;8.778;2023-05-10T06:53:18;8.60;;;6.03;;
24677;SDS011;12800;53.094;8.778;2023-05-10T06:55:44;10.23;;;6.90;;
24677;SDS011;12800;53.094;8.778;2023-05-10T06:58:09;9.45;;;5.95;;
24677;SDS011;12800;53.094;8.778;2023-05-10T07:00:35;9.30;;;6.53;;
24677;SDS011;12800;53.094;8.778;2023-05-10T07:03:05;9.02;;;6.78;;
24677;SDS011;12800;53.094;8.778;2023-05-10T07:05:31;8.18;;;6.40;;
24677;SDS011;12800;53.094;8.778;2023-05-10T07:07:56;9.60;;;6.30;;
24677;SDS011;12800;53.094;8.778;2023-05-10T07:10:22;8.02;;;5.68;;
24677;SDS011;12800;53.094;8.778;2023-05-10T07:12:48;14.80;;;8.95;;
24677;SDS011;12800;53.094;8.778;2023-05-10T07:15:13;9.18;;;7.97;;
24677;SDS011;12800;53.094;8.778;2023-05-10T07:17:39;9.43;;;7.70;;
24677;SDS011;12800;53.094;8.778;2023-05-10T07:20:05;9.52;;;8.35;;
24677;SDS011;12800;53.094;8.778;2023-05-10T07:22:31;11.50;;;8.38;;
24677;SDS011;12800;53.094;8.778;2023-05-10T07:24:57;9.73;;;7.50;;
24677;SDS011;12800;53.094;8.778;2023-05-10T07:27:22;8.90;;;7.50;;
24677;SDS011;12800;53.094;8.778;2023-05-10T07:29:48;7.65;;;5.82;;
24677;SDS011;12800;53.094;8.778;2023-05-10T07:32:13;7.38;;;6.30;;
24677;SDS011;12800;53.094;8.778;2023-05-10T07:34:39;6.95;;;5.75;;
24677;SDS011;12800;53.094;8.778;2023-05-10T07:37:04;7.20;;;6.03;;
24677;SDS011;12800;53.094;8.778;2023-05-10T07:39:31;7.30;;;5.70;;
24677;SDS011;12800;53.094;8.778;2023-05-10T07:41:56;6.10;;;5.50;;
24677;SDS011;12800;53.094;8.778;2023-05-10T07:44:22;5.72;;;5.13;;
24677;SDS011;12800;53.094;8.778;2023-05-10T07:46:48;6.80;;;4.65;;
24677;SDS011;12800;53.094;8.778;2023-05-10T07:49:14;4.63;;;3.78;;
24677;SDS011;12800;53.094;8.778;2023-05-10T07:51:39;4.57;;;2.95;;
24677;SDS011;12800;53.094;8.778;2023-05-10T07:54:05;4.13;;;2.67;;
24677;SDS011;12800;53.094;8.778;2023-05-10T07:56:31;2.53;;;2.33;;
24677;SDS011;12800;53.094;8.778;2023-05-10T07:58:58;2.78;;;2.50;;
24677;SDS011;12800;53.094;8.778;2023-05-10T08:01:24;2.67;;;2.35;;
24677;SDS011;12800;53.094;8.778;2023-05-10T08:03:51;3.28;;;2.33;;
24677;SDS011;12800;53.094;8.778;2023-05-10T08:06:20;2.72;;;2.53;;
24677;SDS011;12800;53.094;8.778;2023-05-10T08:08:46;5.07;;;3.85;;
24677;SDS011;12800;53.094;8.778;2023-05-10T08:11:17;2.75;;;2.45;;
24677;SDS011;12800;53.094;8.778;2023-05-10T08:13:43;4.25;;;2.78;;
24677;SDS011;12800;53.094;8.778;2023-05-10T08:16:09;3.47;;;3.17;;
24677;SDS011;12800;53.094;8.778;2023-05-10T08:18:35;3.50;;;3.20;;
24677;SDS011;12800;53.094;8.778;2023-05-10T08:21:01;5.53;;;3.35;;
24677;SDS011;12800;53.094;8.778;2023-05-10T08:23:27;4.05;;;3.22;;
24677;SDS011;12800;53.094;8.778;2023-05-10T08:25:52;4.57;;;3.10;;
24677;SDS011;12800;53.094;8.778;2023-05-10T08:28:18;3.60;;;3.05;;
24677;SDS011;12800;53.094;8.778;2023-05-10T08:30:44;3.40;;;3.00;;
24677;SDS011;12800;53.094;8.778;2023-05-10T08:33:09;3.80;;;3.08;;
24677;SDS011;12800;53.094;8.778;2023-05-10T08:35:35;3.15;;;2.85;;
24677;SDS011;12800;53.094;8.778;2023-05-10T08:38:01;4.15;;;3.38;;
24677;SDS011;12800;53.094;8.778;2023-05-10T08:40:26;6.53;;;3.55;;
24677;SDS011;12800;53.094;8.778;2023-05-10T08:42:57;4.43;;;3.97;;
24677;SDS011;12800;53.094;8.778;2023-05-10T08:45:31;3.97;;;3.60;;
24677;SDS011;12800;53.094;8.778;2023-05-10T08:47:57;4.82;;;3.75;;
24677;SDS011;12800;53.094;8.778;2023-05-10T08:50:26;5.60;;;4.97;;
24677;SDS011;12800;53.094;8.778;2023-05-10T08:52:52;5.30;;;4.80;;
24677;SDS011;12800;53.094;8.778;2023-05-10T08:55:23;3.47;;;3.15;;
24677;SDS011;12800;53.094;8.778;2023-05-10T08:57:49;3.80;;;3.33;;
24677;SDS011;12800;53.094;8.778;2023-05-10T09:00:15;3.75;;;3.30;;
24677;SDS011;12800;53.094;8.778;2023-05-10T09:02:42;4.13;;;3.00;;
24677;SDS011;12800;53.094;8.778;2023-05-10T09:05:10;2.38;;;2.10;;
24677;SDS011;12800;53.094;8.778;2023-05-10T09:07:37;3.78;;;2.00;;
24677;SDS011;12800;53.094;8.778;2023-05-10T09:10:03;1.98;;;1.77;;
24677;SDS011;12800;53.094;8.778;2023-05-10T09:12:29;1.52;;;1.42;;
24677;SDS011;12800;53.094;8.778;2023-05-10T09:14:55;2.72;;;2.00;;
24677;SDS011;12800;53.094;8.778;2023-05-10T09:17:24;2.70;;;2.17;;
24677;SDS011;12800;53.094;8.778;2023-05-10T09:19:56;2.88;;;2.13;;
24677;SDS011;12800;53.094;8.778;2023-05-10T09:22:26;1.67;;;1.50;;
24677;SDS011;12800;53.094;8.778;2023-05-10T09:27:35;2.78;;;2.13;;
24677;SDS011;12800;53.094;8.778;2023-05-10T09:30:01;3.90;;;2.92;;
24677;SDS011;12800;53.094;8.778;2023-05-10T09:32:48;3.20;;;2.45;;
24677;SDS011;12800;53.094;8.778;2023-05-10T09:35:14;5.25;;;3.50;;
24677;SDS011;12800;53.094;8.778;2023-05-10T09:37:42;3.65;;;2.90;;
24677;SDS011;12800;53.094;8.778;2023-05-10T09:40:11;3.33;;;3.03;;
24677;SDS011;12800;53.094;8.778;2023-05-10T09:42:54;3.88;;;3.40;;
24677;SDS011;12800;53.094;8.778;2023-05-10T09:45:29;3.75;;;3.45;;
24677;SDS011;12800;53.094;8.778;2023-05-10T09:47:56;3.78;;;3.47;;
24677;SDS011;12800;53.094;8.778;2023-05-10T09:50:22;4.47;;;4.05;;
24677;SDS011;12800;53.094;8.778;2023-05-10T09:55:25;4.53;;;4.03;;
24677;SDS011;12800;53.094;8.778;2023-05-10T09:58:02;7.22;;;3.95;;
24677;SDS011;12800;53.094;8.778;2023-05-10T10:00:33;4.28;;;3.78;;
24677;SDS011;12800;53.094;8.778;2023-05-10T10:03:00;4.85;;;4.10;;
24677;SDS011;12800;53.094;8.778;2023-05-10T10:05:34;4.43;;;4.03;;
24677;SDS011;12800;53.094;8.778;2023-05-10T10:08:01;6.03;;;5.20;;
24677;SDS011;12800;53.094;8.778;2023-05-10T10:10:28;4.50;;;4.18;;
24677;SDS011;12800;53.094;8.778;2023-05-10T10:12:55;4.07;;;3.17;;
24677;SDS011;12800;53.094;8.778;2023-05-10T10:15:21;3.55;;;3.25;;
24677;SDS011;12800;53.094;8.778;2023-05-10T10:17:48;3.95;;;3.03;;
24677;SDS011;12800;53.094;8.778;2023-05-10T10:20:14;3.75;;;3.10;;
24677;SDS011;12800;53.094;8.778;2023-05-10T10:22:41;3.47;;;3.17;;
24677;SDS011;12800;53.094;8.778;2023-05-10T10:25:09;4.35;;;3.75;;
24677;SDS011;12800;53.094;8.778;2023-05-10T10:33:13;2.90;;;2.30;;
24677;SDS011;12800;53.094;8.778;2023-05-10T10:35:49;2.72;;;1.75;;
24677;SDS011;12800;53.094;8.778;2023-05-10T10:38:15;2.28;;;2.03;;
24677;SDS011;12800;53.094;8.778;2023-05-10T10:40:42;2.35;;;1.95;;
24677;SDS011;12800;53.094;8.778;2023-05-10T10:43:23;2.70;;;1.95;;
24677;SDS011;12800;53.094;8.778;2023-05-10T10:48:41;4.72;;;2.40;;
24677;SDS011;12800;53.094;8.778;2023-05-10T10:51:12;5.13;;;2.25;;
24677;SDS011;12800;53.094;8.778;2023-05-10T10:53:39;2.90;;;2.70;;
24677;SDS011;12800;53.094;8.778;2023-05-10T10:56:09;2.90;;;2.55;;
24677;SDS011;12800;53.094;8.778;2023-05-10T10:58:38;4.68;;;2.40;;
24677;SDS011;12800;53.094;8.778;2023-05-10T11:04:16;3.85;;;2.10;;
24677;SDS011;12800;53.094;8.778;2023-05-10T11:06:35;1.70;;;1.60;;
24677;SDS011;12800;53.094;8.778;2023-05-10T11:09:07;2.78;;;2.20;;
24677;SDS011;12800;53.094;8.778;2023-05-10T11:11:34;3.72;;;2.35;;
24677;SDS011;12800;53.094;8.778;2023-05-10T11:14:07;3.80;;;3.40;;
24677;SDS011;12800;53.094;8.778;2023-05-10T11:16:42;3.90;;;3.08;;
24677;SDS011;12800;53.094;8.778;2023-05-10T11:19:09;3.50;;;3.10;;
24677;SDS011;12800;53.094;8.778;2023-05-10T11:21:46;3.20;;;2.90;;
24677;SDS011;12800;53.094;8.778;2023-05-10T11:24:13;3.20;;;2.95;;
24677;SDS011;12800;53.094;8.778;2023-05-10T11:26:41;3.25;;;2.95;;
24677;SDS011;12800;53.094;8.778;2023-05-10T11:29:07;3.72;;;3.30;;
24677;SDS011;12800;53.094;8.778;2023-05-10T11:31:33;3.60;;;3.30;;
24677;SDS011;12800;53.094;8.778;2023-05-10T11:33:59;3.60;;;3.20;;
24677;SDS011;12800;53.094;8.778;2023-05-10T11:36:28;2.92;;;2.72;;
24677;SDS011;12800;53.094;8.778;2023-05-10T11:38:57;1.92;;;1.83;;
24677;SDS011;12800;53.094;8.778;2023-05-10T11:41:23;2.45;;;2.20;;
24677;SDS011;12800;53.094;8.778;2023-05-10T11:43:50;2.35;;;2.15;;
24677;SDS011;12800;53.094;8.778;2023-05-10T11:46:18;3.15;;;2.67;;
24677;SDS011;12800;53.094;8.778;2023-05-10T11:48:49;2.75;;;2.55;;
24677;SDS011;12800;53.094;8.778;2023-05-10T11:51:24;1.20;;;1.10;;
24677;SDS011;12800;53.094;8.778;2023-05-10T11:53:52;0.90;;;0.85;;
24677;SDS011;12800;53.094;8.778;2023-05-10T11:56:19;0.60;;;0.60;;
24677;SDS011;12800;53.094;8.778;2023-05-10T11:58:51;1.02;;;0.95;;
24677;SDS011;12800;53.094;8.778;2023-05-10T12:01:18;1.58;;;1.27;;
24677;SDS011;12800;53.094;8.778;2023-05-10T12:03:44;1.83;;;1.08;;
24677;SDS011;12800;53.094;8.778;2023-05-10T12:06:10;3.22;;;1.95;;
24677;SDS011;12800;53.094;8.778;2023-05-10T12:08:36;1.30;;;1.20;;
24677;SDS011;12800;53.094;8.778;2023-05-10T12:11:06;1.55;;;1.40;;
24677;SDS011;12800;53.094;8.778;2023-05-10T12:13:36;1.50;;;1.00;;
24677;SDS011;12800;53.094;8.778;2023-05-10T12:16:16;1.95;;;1.08;;
24677;SDS011;12800;53.094;8.778;2023-05-10T12:18:44;2.10;;;0.93;;
24677;SDS011;12800;53.094;8.778;2023-05-10T12:21:12;1.20;;;0.90;;
24677;SDS011;12800;53.094;8.778;2023-05-10T12:23:40;2.72;;;0.70;;
24677;SDS011;12800;53.094;8.778;2023-05-10T12:26:06;0.73;;;0.70;;
24677;SDS011;12800;53.094;8.778;2023-05-10T12:28:35;1.15;;;0.75;;
24677;SDS011;12800;53.094;8.778;2023-05-10T12:31:01;1.58;;;0.60;;
24677;SDS011;12800;53.094;8.778;2023-05-10T12:33:27;0.90;;;0.40;;
24677;SDS011;12800;53.094;8.778;2023-05-10T12:36:04;0.55;;;0.47;;
24677;SDS011;12800;53.094;8.778;2023-05-10T12:38:34;1.05;;;0.70;;
24677;SDS011;12800;53.094;8.778;2023-05-10T12:41:07;1.45;;;0.50;;
24677;SDS011;12800;53.094;8.778;2023-05-10T12:43:34;0.50;;;0.50;;
24677;SDS011;12800;53.094;8.778;2023-05-10T12:46:08;0.60;;;0.50;;
24677;SDS011;12800;53.094;8.778;2023-05-10T12:48:35;0.52;;;0.52;;
24677;SDS011;12800;53.094;8.778;2023-05-10T12:51:02;1.77;;;0.70;;
24677;SDS011;12800;53.094;8.778;2023-05-10T12:53:29;1.65;;;1.52;;
24677;SDS011;12800;53.094;8.778;2023-05-10T12:55:55;3.67;;;3.33;;
24677;SDS011;12800;53.094;8.778;2023-05-10T12:58:21;1.13;;;1.02;;
24677;SDS011;12800;53.094;8.778;2023-05-10T13:00:46;1.25;;;1.10;;
24677;SDS011;12800;53.094;8.778;2023-05-10T13:03:12;2.58;;;1.60;;
24677;SDS011;12800;53.094;8.778;2023-05-10T13:05:38;3.17;;;2.00;;
24677;SDS011;12800;53.094;8.778;2023-05-10T13:08:04;2.85;;;2.17;;
24677;SDS011;12800;53.094;8.778;2023-05-10T13:10:30;3.65;;;2.80;;
24677;SDS011;12800;53.094;8.778;2023-05-10T13:12:56;4.22;;;2.50;;
24677;SDS011;12800;53.094;8.778;2023-05-10T13:15:25;2.97;;;2.38;;
24677;SDS011;12800;53.094;8.778;2023-05-10T13:17:51;3.90;;;2.60;;
24677;SDS011;12800;53.094;8.778;2023-05-10T13:20:17;3.20;;;2.70;;
24677;SDS011;12800;53.094;8.778;2023-05-10T13:22:43;3.13;;;2.75;;
24677;SDS011;12800;53.094;8.778;2023-05-10T13:25:09;3.45;;;3.15;;
24677;SDS011;12800;53.094;8.778;2023-05-10T13:27:36;4.32;;;3.38;;
24677;SDS011;12800;53.094;8.778;2023-05-10T13:30:02;5.75;;;3.00;;
24677;SDS011;12800;53.094;8.778;2023-05-10T13:32:29;3.33;;;2.95;;
24677;SDS011;12800;53.094;8.778;2023-05-10T13:34:55;3.03;;;2.72;;
24677;SDS011;12800;53.094;8.778;2023-05-10T13:37:21;2.40;;;2.20;;
24677;SDS011;12800;53.094;8.778;2023-05-10T13:39:47;3.45;;;2.50;;
24677;SDS011;12800;53.094;8.778;2023-05-10T13:42:12;2.88;;;2.60;;
24677;SDS011;12800;53.094;8.778;2023-05-10T13:44:38;2.13;;;1.92;;
24677;SDS011;12800;53.094;8.778;2023-05-10T13:47:04;2.25;;;2.05;;
24677;SDS011;12800;53.094;8.778;2023-05-10T13:49:30;2.45;;;2.17;;
24677;SDS011;12800;53.094;8.778;2023-05-10T13:51:56;2.42;;;2.03;;
24677;SDS011;12800;53.094;8.778;2023-05-10T13:54:21;2.10;;;2.00;;
24677;SDS011;12800;53.094;8.778;2023-05-10T13:56:48;2.30;;;2.10;;
24677;SDS011;12800;53.094;8.778;2023-05-10T13:59:14;1.80;;;1.70;;
24677;SDS011;12800;53.094;8.778;2023-05-10T14:01:40;1.75;;;1.50;;
24677;SDS011;12800;53.094;8.778;2023-05-10T14:04:06;2.33;;;2.13;;
24677;SDS011;12800;53.094;8.778;2023-05-10T14:06:35;2.70;;;2.10;;
24677;SDS011;12800;53.094;8.778;2023-05-10T14:09:03;2.33;;;2.13;;
24677;SDS011;12800;53.094;8.778;2023-05-10T14:11:29;2.60;;;2.08;;
24677;SDS011;12800;53.094;8.778;2023-05-10T14:13:54;3.45;;;2.85;;
24677;SDS011;12800;53.094;8.778;2023-05-10T14:16:20;3.63;;;2.55;;
24677;SDS011;12800;53.094;8.778;2023-05-10T14:18:46;4.80;;;2.53;;
24677;SDS011;12800;53.094;8.778;2023-05-10T14:21:12;3.75;;;2.70;;
24677;SDS011;12800;53.094;8.778;2023-05-10T14:23:38;2.60;;;2.38;;
24677;SDS011;12800;53.094;8.778;2023-05-10T14:26:03;3.50;;;2.55;;
24677;SDS011;12800;53.094;8.778;2023-05-10T14:28:29;2.63;;;2.42;;
24677;SDS011;12800;53.094;8.778;2023-05-10T14:30:55;4.65;;;2.90;;
24677;SDS011;12800;53.094;8.778;2023-05-10T14:33:20;4.07;;;2.47;;
24677;SDS011;12800;53.094;8.778;2023-05-10T14:35:46;2.70;;;2.50;;
24677;SDS011;12800;53.094;8.778;2023-05-10T14:38:13;7.80;;;2.72;;
24677;SDS011;12800;53.094;8.778;2023-05-10T14:40:39;3.45;;;2.38;;
24677;SDS011;12800;53.094;8.778;2023-05-10T14:43:05;2.22;;;2.03;;
24677;SDS011;12800;53.094;8.778;2023-05-10T14:45:31;2.35;;;1.95;;
24677;SDS011;12800;53.094;8.778;2023-05-10T14:47:57;3.85;;;2.10;;
24677;SDS011;12800;53.094;8.778;2023-05-10T14:50:23;2.35;;;1.70;;
24677;SDS011;12800;53.094;8.778;2023-05-10T14:52:48;4.25;;;2.20;;
24677;SDS011;12800;53.094;8.778;2023-05-10T14:55:14;4.28;;;2.50;;
24677;SDS011;12800;53.094;8.778;2023-05-10T14:57:40;2.22;;;2.00;;
24677;SDS011;12800;53.094;8.778;2023-05-10T15:00:06;3.13;;;2.30;;
24677;SDS011;12800;53.094;8.778;2023-05-10T15:02:32;2.00;;;1.80;;
24677;SDS011;12800;53.094;8.778;2023-05-10T15:04:58;2.03;;;1.83;;
24677;SDS011;12800;53.094;8.778;2023-05-10T15:07:24;1.63;;;1.52;;
24677;SDS011;12800;53.094;8.778;2023-05-10T15:09:50;2.55;;;2.00;;
24677;SDS011;12800;53.094;8.778;2023-05-10T15:12:16;1.77;;;1.67;;
24677;SDS011;12800;53.094;8.778;2023-05-10T15:14:43;27.40;;;19.10;;
24677;SDS011;12800;53.094;8.778;2023-05-10T15:17:08;10.25;;;7.25;;
24677;SDS011;12800;53.094;8.778;2023-05-10T15:19:35;2.90;;;2.60;;